createdAt,value
2019-02-10T00:02:07.743Z,7.07
2019-02-10T00:04:38.451Z,7.97
2019-02-10T00:07:08.980Z,6.77
2019-02-10T00:09:39.640Z,5.47
2019-02-10T00:12:10.275Z,4.70
2019-02-10T00:14:40.997Z,8.63
2019-02-10T00:17:13.131Z,6.57
2019-02-10T00:19:43.830Z,7.13
2019-02-10T00:22:14.413Z,11.80
2019-02-10T00:24:45.168Z,4.47
2019-02-10T00:27:15.927Z,5.50
2019-02-10T00:29:56.166Z,6.37
2019-02-10T00:32:29.252Z,5.40
2019-02-10T00:34:59.860Z,8.07
2019-02-10T00:37:30.085Z,4.23
2019-02-10T00:40:00.767Z,4.40
2019-02-10T00:42:34.444Z,5.87
2019-02-10T00:45:07.976Z,6.43
2019-02-10T00:47:38.677Z,7.80
2019-02-10T00:50:09.237Z,5.30
2019-02-10T00:52:39.835Z,7.47
2019-02-10T00:55:10.458Z,7.50
2019-02-10T00:57:41.095Z,6.53
2019-02-10T01:00:11.367Z,7.07
2019-02-10T01:02:42.148Z,6.90
2019-02-10T01:05:15.340Z,6.77
2019-02-10T01:07:46.004Z,8.10
2019-02-10T01:10:17.258Z,6.57
2019-02-10T01:12:48.023Z,5.73
2019-02-10T01:15:18.713Z,7.30
2019-02-10T01:17:49.423Z,9.07
2019-02-10T01:20:20.040Z,9.20
2019-02-10T01:22:52.346Z,17.10
2019-02-10T01:25:23.148Z,7.23
2019-02-10T01:27:53.701Z,5.70
2019-02-10T01:30:23.996Z,8.20
2019-02-10T01:32:54.645Z,9.07
2019-02-10T01:35:26.866Z,6.03
2019-02-10T01:37:57.447Z,8.10
2019-02-10T01:40:27.967Z,7.03
2019-02-10T01:42:58.604Z,8.97
2019-02-10T01:45:29.253Z,7.20
2019-02-10T01:47:59.537Z,8.90
2019-02-10T01:50:30.089Z,5.63
2019-02-10T01:53:00.629Z,6.03
2019-02-10T01:55:32.926Z,7.80
2019-02-10T01:58:03.469Z,7.27
2019-02-10T02:00:34.053Z,7.53
2019-02-10T02:03:04.877Z,8.60
2019-02-10T02:05:35.419Z,6.43
2019-02-10T02:08:05.723Z,8.90
2019-02-10T02:10:36.751Z,7.30
2019-02-10T02:13:07.523Z,9.53
2019-02-10T02:15:39.774Z,5.53
2019-02-10T02:18:10.412Z,9.10
2019-02-10T02:20:42.582Z,7.83
2019-02-10T02:23:13.217Z,7.90
2019-02-10T02:25:43.932Z,6.93
2019-02-10T02:28:14.488Z,8.53
2019-02-10T02:30:45.120Z,5.37
2019-02-10T02:33:15.747Z,6.90
2019-02-10T02:35:46.390Z,7.40
2019-02-10T02:38:17.021Z,6.53
2019-02-10T02:40:47.632Z,11.43
2019-02-10T02:43:18.350Z,5.87
2019-02-10T02:45:48.550Z,6.57
2019-02-10T02:48:20.704Z,9.07
2019-02-10T02:50:52.832Z,7.53
2019-02-10T02:53:23.605Z,9.13
2019-02-10T02:55:54.209Z,7.50
2019-02-10T02:58:24.917Z,8.33
2019-02-10T03:00:55.541Z,9.07
2019-02-10T03:03:26.229Z,7.80
2019-02-10T03:05:56.965Z,7.40
2019-02-10T03:08:27.546Z,7.27
2019-02-10T03:10:58.180Z,7.60
2019-02-10T03:13:28.812Z,8.47
2019-02-10T03:15:59.430Z,7.03
2019-02-10T03:18:30.059Z,7.80
2019-02-10T03:21:00.696Z,7.30
2019-02-10T03:23:31.235Z,8.17
2019-02-10T03:26:01.865Z,10.93
2019-02-10T03:28:32.494Z,8.40
2019-02-10T03:31:03.013Z,8.93
2019-02-10T03:33:35.998Z,8.10
2019-02-10T03:36:06.291Z,6.10
2019-02-10T03:38:36.868Z,8.80
2019-02-10T03:41:07.358Z,9.53
2019-02-10T03:43:38.189Z,6.83
2019-02-10T03:46:08.800Z,6.70
2019-02-10T03:48:39.517Z,8.03
2019-02-10T03:51:13.031Z,6.87
2019-02-10T03:53:43.622Z,6.03
2019-02-10T03:56:14.151Z,8.40
2019-02-10T03:58:44.759Z,5.23
2019-02-10T04:01:15.316Z,5.17
2019-02-10T04:03:45.603Z,5.27
2019-02-10T04:06:16.063Z,8.03
2019-02-10T04:08:46.715Z,7.40
2019-02-10T04:11:17.228Z,8.03
2019-02-10T04:13:47.859Z,9.13
2019-02-10T04:16:18.130Z,9.17
2019-02-10T04:18:49.233Z,10.87
2019-02-10T04:21:19.792Z,7.60
2019-02-10T04:23:50.397Z,4.57
2019-02-10T04:26:22.252Z,8.60
2019-02-10T04:28:52.905Z,9.37
2019-02-10T04:31:23.514Z,7.43
2019-02-10T04:33:54.291Z,6.57
2019-02-10T04:36:24.892Z,6.60
2019-02-10T04:38:55.606Z,7.93
2019-02-10T04:41:28.986Z,9.67
2019-02-10T04:43:59.667Z,7.23
2019-02-10T04:46:30.195Z,6.27
2019-02-10T04:49:00.800Z,5.50
2019-02-10T04:51:31.328Z,6.73
2019-02-10T04:54:01.866Z,7.60
2019-02-10T04:56:32.513Z,9.37
2019-02-10T04:59:03.153Z,7.63
2019-02-10T05:01:35.497Z,7.10
2019-02-10T05:04:07.824Z,10.70
2019-02-10T05:06:38.503Z,5.03
2019-02-10T05:09:10.283Z,7.70
2019-02-10T05:11:40.893Z,8.33
2019-02-10T05:14:11.564Z,7.57
2019-02-10T05:16:42.206Z,6.23
2019-02-10T05:19:12.915Z,5.10
2019-02-10T05:21:43.554Z,5.60
2019-02-10T05:24:13.872Z,5.60
2019-02-10T05:26:44.064Z,8.03
2019-02-10T05:29:16.454Z,8.47
2019-02-10T05:31:46.702Z,7.83
2019-02-10T05:34:17.406Z,10.60
2019-02-10T05:36:48.054Z,5.90
2019-02-10T05:39:18.690Z,8.60
2019-02-10T05:41:49.316Z,6.27
2019-02-10T05:44:19.966Z,7.07
2019-02-10T05:46:50.232Z,8.10
2019-02-10T05:49:20.808Z,7.07
2019-02-10T05:51:51.436Z,9.90
2019-02-10T05:54:22.062Z,7.93
2019-02-10T05:56:52.606Z,7.87
2019-02-10T05:59:23.323Z,6.50
2019-02-10T06:02:03.077Z,7.43
2019-02-10T06:04:40.060Z,6.53
2019-02-10T06:07:13.804Z,7.60
2019-02-10T06:09:44.385Z,10.07
2019-02-10T06:12:14.672Z,8.07
2019-02-10T06:14:45.471Z,5.10
2019-02-10T06:17:16.085Z,7.00
2019-02-10T06:19:46.717Z,9.13
2019-02-10T06:22:17.235Z,8.90
2019-02-10T06:24:47.860Z,6.97
2019-02-10T06:27:18.486Z,9.13
2019-02-10T06:29:49.221Z,8.27
2019-02-10T06:32:19.853Z,8.17
2019-02-10T06:34:51.134Z,9.37
2019-02-10T06:37:21.850Z,10.10
2019-02-10T06:39:52.060Z,8.67
2019-02-10T06:42:22.596Z,6.50
2019-02-10T06:44:53.124Z,5.93
2019-02-10T06:47:23.743Z,7.67
2019-02-10T06:49:54.378Z,5.30
2019-02-10T06:52:27.045Z,6.53
2019-02-10T06:54:57.581Z,8.67
2019-02-10T06:57:28.128Z,11.47
2019-02-10T07:00:03.275Z,8.03
2019-02-10T07:02:38.513Z,9.63
2019-02-10T07:05:11.201Z,8.50
2019-02-10T07:07:41.716Z,5.97
2019-02-10T07:10:12.354Z,7.53
2019-02-10T07:12:47.183Z,8.27
2019-02-10T07:15:54.203Z,8.30
2019-02-10T07:19:01.364Z,7.57
2019-02-10T07:21:34.131Z,8.53
2019-02-10T07:24:24.623Z,6.93
2019-02-10T07:26:57.221Z,11.03
2019-02-10T07:29:36.769Z,7.63
2019-02-10T07:32:08.932Z,9.90
2019-02-10T07:34:48.026Z,13.37
2019-02-10T07:37:32.703Z,9.53
2019-02-10T07:40:33.455Z,8.70
2019-02-10T07:43:10.233Z,11.70
2019-02-10T07:45:50.077Z,10.73
2019-02-10T07:48:29.846Z,10.10
2019-02-10T07:51:20.980Z,13.27
2019-02-10T07:54:09.478Z,9.90
2019-02-10T07:56:58.131Z,11.07
2019-02-10T07:59:32.041Z,8.33
2019-02-10T08:02:08.416Z,10.93
2019-02-10T08:05:03.329Z,11.77
2019-02-10T08:07:39.993Z,13.70
2019-02-10T08:10:22.694Z,8.87
2019-02-10T08:12:56.501Z,9.60
2019-02-10T08:15:36.629Z,11.13
2019-02-10T08:18:20.957Z,8.83
2019-02-10T08:20:57.602Z,8.33
2019-02-10T08:23:36.809Z,8.63
2019-02-10T08:26:10.627Z,9.43
2019-02-10T08:29:02.638Z,6.13
2019-02-10T08:32:10.995Z,11.47
2019-02-10T08:35:01.265Z,9.83
2019-02-10T08:38:02.105Z,12.57
2019-02-10T08:40:53.320Z,11.93
2019-02-10T08:43:41.876Z,8.03
2019-02-10T08:46:21.051Z,10.20
2019-02-10T08:49:13.341Z,9.77
2019-02-10T08:51:55.883Z,10.70
2019-02-10T08:54:31.021Z,11.93
2019-02-10T08:57:01.525Z,8.53
2019-02-10T08:59:32.777Z,6.83
2019-02-10T09:02:02.983Z,9.97
2019-02-10T09:04:33.640Z,8.57
2019-02-10T09:07:04.371Z,8.70
2019-02-10T09:09:35.096Z,10.73
2019-02-10T09:12:05.938Z,6.70
2019-02-10T09:14:36.578Z,14.20
2019-02-10T09:17:07.188Z,11.07
2019-02-10T09:19:37.763Z,13.27
2019-02-10T09:22:08.414Z,10.77
2019-02-10T09:24:39.350Z,10.70
2019-02-10T09:27:09.833Z,9.30
2019-02-10T09:29:40.160Z,10.20
2019-02-10T09:32:13.278Z,12.70
2019-02-10T09:34:43.965Z,10.20
2019-02-10T09:37:14.232Z,9.13
2019-02-10T09:39:44.921Z,10.77
2019-02-10T09:42:15.444Z,13.57
2019-02-10T09:44:46.230Z,9.87
2019-02-10T09:47:17.483Z,9.37
2019-02-10T09:49:48.166Z,12.37
2019-02-10T09:52:18.686Z,8.40
2019-02-10T09:54:49.353Z,13.13
2019-02-10T09:57:19.890Z,10.70
2019-02-10T09:59:50.130Z,9.43
2019-02-10T10:02:20.805Z,9.13
2019-02-10T10:04:51.350Z,10.20
2019-02-10T10:07:21.881Z,10.53
2019-02-10T10:09:54.200Z,11.03
2019-02-10T10:12:24.942Z,19.37
2019-02-10T10:14:55.519Z,19.93
2019-02-10T10:17:28.311Z,10.37
2019-02-10T10:19:58.836Z,8.70
2019-02-10T10:22:33.643Z,11.87
2019-02-10T10:25:03.577Z,11.67
2019-02-10T10:27:34.645Z,9.37
2019-02-10T10:30:10.978Z,9.63
2019-02-10T10:32:41.230Z,11.47
2019-02-10T10:35:11.843Z,17.23
2019-02-10T10:37:42.678Z,9.07
2019-02-10T10:40:17.929Z,12.07
2019-02-10T10:42:50.961Z,11.83
2019-02-10T10:45:21.748Z,9.87
2019-02-10T10:47:52.360Z,9.73
2019-02-10T10:50:22.997Z,13.80
2019-02-10T10:52:53.620Z,10.37
2019-02-10T10:55:24.758Z,10.77
2019-02-10T10:57:55.318Z,11.17
2019-02-10T11:00:26.035Z,7.60
2019-02-10T11:02:57.477Z,10.20
2019-02-10T11:05:28.269Z,7.70
2019-02-10T11:08:00.587Z,10.80
2019-02-10T11:10:33.812Z,7.30
2019-02-10T11:13:04.070Z,13.20
2019-02-10T11:15:35.228Z,7.47
2019-02-10T11:18:07.416Z,9.10
2019-02-10T11:20:37.983Z,8.70
2019-02-10T11:23:10.798Z,8.33
2019-02-10T11:25:41.456Z,10.20
2019-02-10T11:28:12.244Z,6.90
2019-02-10T11:30:42.928Z,8.77
2019-02-10T11:33:13.525Z,7.87
2019-02-10T11:35:45.825Z,10.40
2019-02-10T11:38:16.086Z,10.30
2019-02-10T11:40:47.050Z,8.90
2019-02-10T11:43:17.656Z,10.53
2019-02-10T11:45:48.259Z,8.17
2019-02-10T11:48:18.776Z,11.57
2019-02-10T11:50:49.326Z,6.00
2019-02-10T11:53:19.971Z,7.20
2019-02-10T11:55:51.006Z,10.33
2019-02-10T11:58:21.665Z,12.30
2019-02-10T12:00:53.517Z,10.60
2019-02-10T12:03:24.217Z,7.47
2019-02-10T12:05:54.857Z,6.97
2019-02-10T12:08:34.994Z,7.90
2019-02-10T12:10:57.938Z,7.77
2019-02-10T12:13:30.427Z,5.77
2019-02-10T12:16:01.075Z,7.40
2019-02-10T12:18:31.811Z,6.53
2019-02-10T12:21:02.103Z,6.60
2019-02-10T12:23:32.822Z,7.87
2019-02-10T12:26:03.481Z,10.37
2019-02-10T12:28:35.850Z,6.93
2019-02-10T12:31:06.896Z,11.03
2019-02-10T12:33:37.087Z,5.17
2019-02-10T12:36:09.110Z,8.30
2019-02-10T12:38:40.452Z,4.87
2019-02-10T12:41:10.823Z,5.90
2019-02-10T12:43:41.513Z,5.07
2019-02-10T12:46:12.240Z,4.10
2019-02-10T12:48:46.165Z,6.40
2019-02-10T12:51:16.766Z,4.40
2019-02-10T12:53:47.319Z,6.50
2019-02-10T12:56:17.689Z,3.93
2019-02-10T12:58:51.152Z,3.67
2019-02-10T13:01:21.771Z,4.47
2019-02-10T13:03:52.067Z,4.67
2019-02-10T13:06:24.259Z,4.37
2019-02-10T13:08:54.905Z,3.33
2019-02-10T13:11:25.636Z,6.33
2019-02-10T13:13:56.396Z,7.63
2019-02-10T13:16:27.207Z,13.07
2019-02-10T13:19:04.788Z,10.80
2019-02-10T13:21:35.536Z,8.53
2019-02-10T13:24:06.683Z,5.20
2019-02-10T13:26:39.055Z,6.47
2019-02-10T13:29:12.785Z,4.50
2019-02-10T13:31:45.163Z,4.07
2019-02-10T13:34:17.387Z,4.97
2019-02-10T13:36:48.132Z,3.97
2019-02-10T13:39:18.406Z,3.27
2019-02-10T13:41:48.324Z,4.17
2019-02-10T13:44:22.092Z,5.67
2019-02-10T13:46:52.404Z,3.50
2019-02-10T13:49:23.035Z,4.13
2019-02-10T13:51:55.305Z,3.40
2019-02-10T13:54:25.902Z,5.27
2019-02-10T13:56:57.107Z,5.70
2019-02-10T13:59:27.819Z,7.97
2019-02-10T14:01:58.491Z,3.57
2019-02-10T14:04:30.827Z,4.80
2019-02-10T14:07:02.130Z,5.13
2019-02-10T14:09:32.816Z,5.63
2019-02-10T14:12:03.439Z,6.43
2019-02-10T14:14:34.047Z,6.77
2019-02-10T14:17:04.355Z,4.80
2019-02-10T14:19:34.903Z,7.73
2019-02-10T14:22:07.012Z,4.53
2019-02-10T14:24:37.693Z,4.10
2019-02-10T14:27:10.069Z,4.77
2019-02-10T14:29:40.700Z,4.70
2019-02-10T14:32:10.940Z,3.90
2019-02-10T14:34:43.131Z,6.77
2019-02-10T14:37:13.457Z,3.33
2019-02-10T14:39:44.047Z,6.07
2019-02-10T14:42:14.585Z,4.03
2019-02-10T14:44:45.318Z,3.93
2019-02-10T14:47:17.613Z,5.00
2019-02-10T14:49:48.356Z,4.37
2019-02-10T14:52:20.495Z,5.73
2019-02-10T14:54:56.993Z,4.87
2019-02-10T14:57:27.742Z,5.83
2019-02-10T14:59:59.582Z,5.07
2019-02-10T15:02:30.303Z,8.30
2019-02-10T15:05:02.195Z,8.40
2019-02-10T15:07:35.520Z,6.30
2019-02-10T15:10:08.500Z,6.37
2019-02-10T15:12:39.198Z,4.50
2019-02-10T15:15:11.278Z,5.73
2019-02-10T15:17:54.764Z,4.50
2019-02-10T15:20:15.431Z,8.80
2019-02-10T15:22:48.773Z,7.87
2019-02-10T15:25:19.524Z,7.83
2019-02-10T15:27:50.285Z,8.87
2019-02-10T15:30:20.965Z,5.63
2019-02-10T15:32:51.591Z,4.63
2019-02-10T15:35:22.715Z,5.80
2019-02-10T15:37:55.119Z,4.80
2019-02-10T15:40:27.595Z,5.70
2019-02-10T15:42:58.462Z,4.77
2019-02-10T15:45:30.839Z,6.50
2019-02-10T15:48:01.424Z,5.30
2019-02-10T15:50:33.683Z,5.80
2019-02-10T15:53:04.349Z,6.93
2019-02-10T15:55:34.629Z,5.97
2019-02-10T15:58:05.364Z,5.23
2019-02-10T16:00:36.199Z,5.97
2019-02-10T16:03:08.316Z,5.67
2019-02-10T16:05:39.332Z,6.10
2019-02-10T16:08:09.944Z,7.47
2019-02-10T16:10:41.144Z,6.80
2019-02-10T16:13:12.443Z,5.93
2019-02-10T16:15:44.349Z,7.03
2019-02-10T16:18:14.997Z,5.87
2019-02-10T16:20:47.229Z,5.07
2019-02-10T16:23:19.493Z,4.90
2019-02-10T16:25:50.128Z,5.70
2019-02-10T16:28:30.705Z,4.87
2019-02-10T16:31:01.477Z,4.73
2019-02-10T16:33:32.419Z,7.10
2019-02-10T16:36:05.651Z,5.33
2019-02-10T16:38:36.516Z,5.30
2019-02-10T16:41:08.303Z,6.57
2019-02-10T16:43:39.013Z,6.03
2019-02-10T16:46:12.095Z,5.50
2019-02-10T16:48:46.109Z,4.87
2019-02-10T16:51:16.398Z,4.87
2019-02-10T16:53:48.624Z,5.03
2019-02-10T16:56:20.873Z,4.80
2019-02-10T16:58:59.049Z,6.63
2019-02-10T17:01:31.741Z,6.20
2019-02-10T17:04:02.506Z,5.27
2019-02-10T17:06:34.723Z,5.17
2019-02-10T17:09:06.112Z,5.33
2019-02-10T17:11:36.861Z,5.43
2019-02-10T17:14:07.668Z,5.97
2019-02-10T17:16:40.041Z,4.87
2019-02-10T17:19:10.693Z,5.43
2019-02-10T17:21:41.399Z,5.17
2019-02-10T17:24:13.246Z,5.57
2019-02-10T17:26:45.236Z,6.23
2019-02-10T17:29:15.991Z,4.73
2019-02-10T17:31:47.846Z,11.73
2019-02-10T17:34:18.453Z,9.97
2019-02-10T17:36:49.003Z,7.50
2019-02-10T17:39:21.202Z,14.57
2019-02-10T17:41:52.507Z,15.17
2019-02-10T17:44:23.241Z,6.77
2019-02-10T17:46:53.897Z,6.53
2019-02-10T17:49:25.219Z,3.63
2019-02-10T17:51:56.272Z,4.20
2019-02-10T17:54:27.669Z,4.37
2019-02-10T17:56:58.639Z,4.93
2019-02-10T17:59:34.060Z,4.87
2019-02-10T18:02:04.752Z,3.97
2019-02-10T18:04:37.601Z,5.53
2019-02-10T18:07:07.583Z,4.40
2019-02-10T18:09:39.638Z,4.40
2019-02-10T18:12:13.747Z,4.77
2019-02-10T18:15:04.312Z,7.53
2019-02-10T18:17:57.276Z,6.17
2019-02-10T18:20:41.211Z,4.30
2019-02-10T18:23:29.952Z,4.13
2019-02-10T18:26:02.279Z,5.13
2019-02-10T18:28:46.552Z,4.10
2019-02-10T18:31:21.536Z,5.00
2019-02-10T18:33:55.099Z,5.30
2019-02-10T18:36:31.315Z,4.53
2019-02-10T18:39:09.286Z,4.43
2019-02-10T18:41:47.275Z,3.60
2019-02-10T18:44:19.555Z,4.03
2019-02-10T18:46:52.017Z,4.50
2019-02-10T18:49:40.607Z,3.20
2019-02-10T18:52:25.117Z,6.77
2019-02-10T18:55:00.247Z,8.13
2019-02-10T18:57:48.852Z,5.33
2019-02-10T19:00:37.955Z,4.23
2019-02-10T19:03:14.197Z,3.20
2019-02-10T19:05:46.436Z,3.30
2019-02-10T19:08:30.871Z,4.10
2019-02-10T19:11:03.186Z,4.63
2019-02-10T19:13:45.990Z,3.90
2019-02-10T19:16:18.358Z,4.40
2019-02-10T19:18:53.670Z,4.57
2019-02-10T19:21:27.094Z,7.40
2019-02-10T19:24:02.576Z,12.87
2019-02-10T19:26:37.897Z,6.73
2019-02-10T19:29:16.265Z,5.50
2019-02-10T19:32:07.041Z,3.83
2019-02-10T19:34:55.897Z,6.27
2019-02-10T19:37:32.128Z,3.40
2019-02-10T19:40:16.819Z,2.87
2019-02-10T19:43:05.764Z,3.63
2019-02-10T19:45:38.118Z,3.07
2019-02-10T19:48:13.222Z,3.80
2019-02-10T19:50:45.633Z,2.67
2019-02-10T19:53:20.544Z,6.37
2019-02-10T19:55:55.573Z,3.90
2019-02-10T19:58:30.545Z,3.57
2019-02-10T20:01:15.311Z,3.63
2019-02-10T20:04:05.506Z,2.87
2019-02-10T20:06:37.865Z,3.53
2019-02-10T20:09:09.828Z,4.27
2019-02-10T20:12:03.976Z,4.07
2019-02-10T20:14:32.829Z,3.87
2019-02-10T20:17:08.134Z,3.50
2019-02-10T20:19:42.167Z,3.40
2019-02-10T20:22:17.509Z,3.80
2019-02-10T20:24:52.226Z,4.77
2019-02-10T20:27:39.667Z,5.73
2019-02-10T20:30:30.378Z,4.10
2019-02-10T20:33:19.219Z,3.33
2019-02-10T20:36:06.695Z,4.43
2019-02-10T20:38:55.279Z,3.00
2019-02-10T20:41:36.453Z,5.10
2019-02-10T20:44:25.104Z,4.53
2019-02-10T20:46:59.698Z,3.20
2019-02-10T20:49:32.044Z,20.53
2019-02-10T20:52:20.834Z,2.70
2019-02-10T20:55:02.480Z,2.83
2019-02-10T20:57:52.656Z,2.33
2019-02-10T21:00:31.350Z,2.40
2019-02-10T21:03:20.012Z,2.50
2019-02-10T21:05:58.483Z,2.37
2019-02-10T21:08:30.712Z,4.73
2019-02-10T21:11:05.646Z,3.83
2019-02-10T21:13:40.899Z,2.77
2019-02-10T21:16:29.544Z,2.40
2019-02-10T21:19:04.459Z,2.33
2019-02-10T21:21:38.440Z,2.73
2019-02-10T21:24:10.760Z,3.30
2019-02-10T21:26:43.155Z,2.20
2019-02-10T21:29:18.359Z,2.10
2019-02-10T21:31:53.664Z,1.80
2019-02-10T21:34:26.824Z,1.90
2019-02-10T21:36:59.165Z,1.97
2019-02-10T21:39:46.438Z,1.63
2019-02-10T21:42:18.760Z,1.53
2019-02-10T21:44:51.712Z,2.90
2019-02-10T21:47:32.497Z,2.13
2019-02-10T21:50:04.420Z,1.60
2019-02-10T21:52:37.800Z,2.07
2019-02-10T21:55:09.709Z,1.33
2019-02-10T21:57:43.020Z,1.50
2019-02-10T22:00:14.508Z,1.20
2019-02-10T22:02:45.207Z,1.47
2019-02-10T22:05:15.852Z,2.00
2019-02-10T22:07:46.478Z,1.50
2019-02-10T22:10:17.090Z,1.40
2019-02-10T22:12:47.632Z,2.27
2019-02-10T22:15:18.250Z,1.50
2019-02-10T22:17:48.987Z,1.13
2019-02-10T22:20:19.521Z,1.30
2019-02-10T22:22:50.150Z,1.30
2019-02-10T22:25:20.417Z,1.50
2019-02-10T22:27:51.138Z,0.97
2019-02-10T22:30:21.754Z,0.93
2019-02-10T22:32:52.559Z,1.10
2019-02-10T22:35:23.206Z,2.33
2019-02-10T22:37:53.928Z,2.27
2019-02-10T22:40:24.454Z,1.30
2019-02-10T22:42:55.098Z,1.30
2019-02-10T22:45:25.739Z,1.63
2019-02-10T22:47:56.405Z,1.20
2019-02-10T22:50:26.709Z,1.23
2019-02-10T22:52:57.325Z,1.77
2019-02-10T22:55:27.999Z,1.30
2019-02-10T22:58:00.255Z,1.27
2019-02-10T23:00:49.661Z,1.03
2019-02-10T23:03:20.823Z,1.00
2019-02-10T23:05:51.049Z,0.97
2019-02-10T23:08:21.359Z,0.80
2019-02-10T23:10:52.082Z,0.80
2019-02-10T23:13:22.759Z,2.03
2019-02-10T23:15:53.293Z,1.00
2019-02-10T23:18:24.011Z,0.90
2019-02-10T23:20:54.539Z,1.00
2019-02-10T23:23:25.067Z,1.03
2019-02-10T23:25:55.606Z,11.03
2019-02-10T23:28:26.336Z,1.63
2019-02-10T23:30:58.371Z,1.20
2019-02-10T23:33:28.938Z,1.53
2019-02-10T23:35:59.458Z,1.43
2019-02-10T23:38:29.739Z,1.00
2019-02-10T23:41:00.313Z,1.13
2019-02-10T23:43:30.943Z,1.00
2019-02-10T23:46:01.177Z,1.20
2019-02-10T23:48:31.691Z,1.00
2019-02-10T23:51:01.891Z,1.10
2019-02-10T23:53:32.222Z,1.13
2019-02-10T23:56:02.860Z,1.13
2019-02-10T23:58:33.393Z,1.40
